Time;durP1;ratioP1;P1;durP2;ratioP2;P2;SDS_P1;SDS_P2;PMS_P1;PMS_P2;Temp;Humidity;BMP_temperature;BMP_pressure;BME280_temperature;BME280_humidity;BME280_pressure;Samples;Min_cycle;Max_cycle;Signal;HPM_P1;HPM_P2
2022/07/14 00:00:48;;;;;;;;;10.00;8.25;;;;;36.66;24.10;101433.25;5118125;27;46632;-79
2022/07/14 00:03:14;;;;;;;;;7.25;7.25;;;;;36.36;24.31;101440.09;5116622;27;45436;-79
2022/07/14 00:05:39;;;;;;;;;7.00;7.00;;;;;37.07;23.51;101434.47;5120688;27;45335;-79
2022/07/14 00:08:05;;;;;;;;;10.00;8.50;;;;;36.69;24.33;101430.03;5117775;27;45305;-79
2022/07/14 00:10:30;;;;;;;;;10.00;8.25;;;;;36.62;24.03;101429.34;5114310;27;46464;-79
2022/07/14 00:12:56;;;;;;;;;11.75;9.25;;;;;36.38;24.41;101428.00;5120301;27;45341;-79
2022/07/14 00:15:21;;;;;;;;;11.25;9.75;;;;;36.41;25.07;101435.75;5102111;27;45447;-79
2022/07/14 00:17:46;;;;;;;;;11.75;9.00;;;;;36.28;24.99;101425.94;5090697;27;45901;-79
2022/07/14 00:20:12;;;;;;;;;11.25;10.75;;;;;36.06;25.56;101414.94;5114796;27;46224;-79
2022/07/14 00:22:38;;;;;;;;;16.50;16.25;;;;;35.70;25.59;101412.75;5113540;27;45324;-79
2022/07/14 00:25:04;;;;;;;;;22.00;19.50;;;;;36.00;25.25;101414.03;5119799;27;45233;-79
2022/07/14 00:27:29;;;;;;;;;22.25;19.00;;;;;36.05;25.28;101407.78;5112069;27;45309;-79
2022/07/14 00:29:55;;;;;;;;;28.75;22.75;;;;;36.28;25.23;101396.53;5122795;27;46449;-79
2022/07/14 00:32:20;;;;;;;;;37.00;31.25;;;;;35.96;25.41;101390.09;5115550;27;45480;-79
2022/07/14 00:34:45;;;;;;;;;36.00;28.50;;;;;36.18;24.85;101379.88;5123672;27;45141;-79
2022/07/14 00:37:11;;;;;;;;;47.25;35.25;;;;;36.10;25.17;101382.25;5104566;27;45551;-79
2022/07/14 00:39:54;;;;;;;;;55.50;42.00;;;;;36.03;25.52;101381.63;5123095;27;45285;-79
2022/07/14 00:42:39;;;;;;;;;49.75;38.50;;;;;36.07;25.58;101382.75;5123412;27;45699;-79
2022/07/14 00:45:10;;;;;;;;;47.75;38.75;;;;;35.64;25.39;101378.91;5120290;27;45172;-79
2022/07/14 00:47:36;;;;;;;;;47.25;33.75;;;;;35.91;25.70;101388.09;5123734;27;45508;-79
2022/07/14 00:50:02;;;;;;;;;34.00;29.50;;;;;35.98;25.87;101385.97;5123299;27;45422;-79
2022/07/14 00:52:29;;;;;;;;;28.25;27.75;;;;;36.12;25.66;101382.84;5102647;27;45377;-79
2022/07/14 00:54:55;;;;;;;;;28.75;24.75;;;;;36.12;25.20;101383.66;5084751;27;45384;-79
2022/07/14 00:57:22;;;;;;;;;27.00;24.00;;;;;36.09;25.27;101386.91;5116329;27;45370;-79
2022/07/14 00:59:48;;;;;;;;;28.25;23.50;;;;;36.12;25.15;101385.59;5104335;27;48031;-78
2022/07/14 01:02:17;;;;;;;;;38.00;28.25;;;;;35.88;25.54;101382.25;5109558;27;45363;-79
2022/07/14 01:04:45;;;;;;;;;35.50;28.75;;;;;35.91;25.91;101396.34;5123711;27;45449;-79
2022/07/14 01:07:12;;;;;;;;;33.00;26.25;;;;;35.81;25.84;101407.19;5120263;27;45306;-79
2022/07/14 01:09:37;;;;;;;;;21.25;17.25;;;;;35.89;25.67;101398.50;5112379;27;45526;-79
2022/07/14 01:12:03;;;;;;;;;13.75;13.00;;;;;35.91;25.54;101398.25;5115755;27;45494;-79
2022/07/14 01:14:28;;;;;;;;;14.50;11.00;;;;;35.78;25.96;101396.72;5121312;27;45328;-79
2022/07/14 01:16:55;;;;;;;;;9.50;9.50;;;;;35.84;26.02;101400.38;5123246;27;45373;-79
2022/07/14 01:19:22;;;;;;;;;15.50;15.50;;;;;35.62;27.16;101412.13;5113242;27;45809;-79
2022/07/14 01:21:52;;;;;;;;;11.75;11.75;;;;;35.23;28.24;101410.44;5122780;27;45314;-79
2022/07/14 01:24:17;;;;;;;;;16.75;14.00;;;;;35.06;28.37;101409.56;5122409;27;45233;-79
2022/07/14 01:26:43;;;;;;;;;23.50;16.00;;;;;34.77;28.01;101411.56;5122769;27;45340;-79
2022/07/14 01:29:08;;;;;;;;;24.00;17.00;;;;;34.81;27.96;101419.03;5122266;27;46277;-79
2022/07/14 01:31:34;;;;;;;;;15.75;14.50;;;;;34.63;28.57;101421.97;5119961;27;45385;-79
2022/07/14 01:34:00;;;;;;;;;12.50;10.75;;;;;34.52;28.59;101426.44;5117596;27;48208;-79
2022/07/14 01:36:25;;;;;;;;;12.75;12.50;;;;;34.42;28.90;101428.16;5123047;27;45380;-79
2022/07/14 01:38:52;;;;;;;;;16.75;12.25;;;;;34.57;28.29;101428.47;5122094;27;45316;-79
2022/07/14 01:41:18;;;;;;;;;11.75;11.75;;;;;34.78;28.45;101426.97;5121084;27;45558;-79
2022/07/14 01:43:43;;;;;;;;;12.25;9.25;;;;;34.53;28.29;101422.63;5118658;27;45330;-79
2022/07/14 01:46:09;;;;;;;;;8.50;8.00;;;;;34.45;28.38;101422.19;5111344;27;45463;-79
2022/07/14 01:48:34;;;;;;;;;8.00;8.00;;;;;34.35;28.40;101427.47;5122647;27;45338;-79
2022/07/14 01:50:59;;;;;;;;;7.50;7.00;;;;;34.26;28.20;101426.19;5113574;27;45566;-79
2022/07/14 01:53:25;;;;;;;;;12.50;7.50;;;;;34.08;28.77;101417.03;5114115;27;46019;-79
2022/07/14 01:55:50;;;;;;;;;8.00;7.00;;;;;34.21;28.39;101410.44;5111884;27;45368;-79
2022/07/14 01:58:15;;;;;;;;;12.25;9.00;;;;;34.53;27.88;101411.66;5122075;27;45310;-79
2022/07/14 02:00:41;;;;;;;;;7.75;7.75;;;;;34.49;28.09;101412.41;5113005;27;45415;-79
2022/07/14 02:03:06;;;;;;;;;14.25;12.00;;;;;34.39;28.65;101420.44;5101484;27;45913;-79
2022/07/14 02:05:31;;;;;;;;;17.50;16.75;;;;;34.32;28.65;101406.88;5117634;27;45610;-78
2022/07/14 02:07:57;;;;;;;;;21.75;16.75;;;;;34.04;28.90;101404.91;5116848;27;46262;-79
2022/07/14 02:13:06;;;;;;;;;25.50;21.50;;;;;33.88;29.25;101400.16;5119917;27;45389;-79
2022/07/14 02:15:31;;;;;;;;;19.50;16.25;;;;;33.83;29.43;101396.47;5119755;27;45290;-79
2022/07/14 02:17:56;;;;;;;;;19.50;17.75;;;;;33.80;29.64;101406.00;5115942;27;46648;-79
2022/07/14 02:20:22;;;;;;;;;20.00;15.75;;;;;33.73;29.57;101395.19;5121647;27;45236;-79
2022/07/14 02:22:48;;;;;;;;;13.50;13.25;;;;;33.92;29.43;101393.13;5122294;27;45455;-79
2022/07/14 02:25:13;;;;;;;;;15.25;13.50;;;;;33.61;29.93;101388.84;5121939;27;45210;-79
2022/07/14 02:27:39;;;;;;;;;11.75;9.25;;;;;33.76;29.91;101389.25;5121816;27;46145;-79
2022/07/14 02:30:05;;;;;;;;;12.25;7.00;;;;;33.67;29.89;101389.81;5115307;27;45415;-79
2022/07/14 02:32:31;;;;;;;;;11.00;9.75;;;;;33.67;29.80;101393.41;5114603;27;45419;-79
2022/07/14 02:34:57;;;;;;;;;13.00;12.00;;;;;33.27;30.10;101390.53;5121630;27;45530;-79
2022/07/14 02:37:23;;;;;;;;;12.50;11.50;;;;;33.14;30.52;101388.03;5121223;27;45419;-79
2022/07/14 02:39:48;;;;;;;;;15.75;12.50;;;;;33.18;30.50;101382.88;5121309;27;45378;-79
2022/07/14 02:42:14;;;;;;;;;16.25;13.25;;;;;33.50;30.02;101383.41;5119793;27;45455;-79
2022/07/14 02:44:39;;;;;;;;;18.50;15.00;;;;;33.48;29.99;101388.28;5122264;27;45165;-79
2022/07/14 02:47:05;;;;;;;;;13.75;13.00;;;;;33.58;29.94;101388.53;5121407;27;45483;-79
2022/07/14 02:49:30;;;;;;;;;6.50;3.50;;;;;33.43;30.10;101389.00;5121404;27;45236;-78
2022/07/14 02:51:56;;;;;;;;;13.25;12.00;;;;;33.48;30.29;101388.28;5107039;27;45226;-78
2022/07/14 02:54:21;;;;;;;;;15.50;13.75;;;;;33.51;30.53;101376.88;5107346;27;45550;-79
2022/07/14 02:56:46;;;;;;;;;11.50;11.50;;;;;33.53;30.64;101366.47;5121083;27;46101;-78
2022/07/14 02:59:12;;;;;;;;;16.75;13.00;;;;;33.55;30.36;101375.28;5121220;27;45266;-78
2022/07/14 03:01:38;;;;;;;;;11.75;10.00;;;;;33.85;30.02;101372.44;5120997;27;45377;-78
2022/07/14 03:04:03;;;;;;;;;17.25;13.50;;;;;34.15;29.92;101370.28;5121680;27;45295;-79
2022/07/14 03:06:29;;;;;;;;;15.75;13.25;;;;;34.03;29.86;101378.56;5112838;27;46521;-79
2022/07/14 03:08:54;;;;;;;;;14.75;13.25;;;;;33.92;30.12;101382.16;5101359;27;45309;-78
2022/07/14 03:11:20;;;;;;;;;18.00;15.25;;;;;34.02;30.52;101368.69;5116920;27;45412;-78
2022/07/14 03:13:46;;;;;;;;;22.00;16.25;;;;;33.95;30.16;101376.22;5108109;27;45365;-79
2022/07/14 03:16:12;;;;;;;;;21.00;17.50;;;;;33.89;30.19;101379.06;5120878;27;45894;-79
2022/07/14 03:18:39;;;;;;;;;24.25;19.00;;;;;33.82;30.73;101371.00;5113418;27;45596;-79
2022/07/14 03:21:07;;;;;;;;;21.50;20.25;;;;;33.78;30.90;101376.09;5114584;27;45405;-79
2022/07/14 03:23:32;;;;;;;;;30.25;22.00;;;;;33.76;30.80;101378.28;5118957;27;45265;-79
2022/07/14 03:25:57;;;;;;;;;18.00;13.75;;;;;33.75;30.91;101384.00;5120415;27;46214;-79
2022/07/14 03:28:23;;;;;;;;;25.00;22.00;;;;;33.56;31.56;101368.75;5101947;27;45272;-79
2022/07/14 03:30:54;;;;;;;;;21.25;17.00;;;;;33.42;31.57;101379.09;5112010;27;45281;-79
2022/07/14 03:33:19;;;;;;;;;21.25;18.25;;;;;33.46;31.61;101371.25;5120735;27;45256;-79
2022/07/14 03:35:45;;;;;;;;;18.50;16.75;;;;;33.39;31.97;101379.59;5120603;27;46012;-79
2022/07/14 03:38:10;;;;;;;;;20.00;17.00;;;;;33.35;32.04;101372.94;5120986;27;45290;-79
2022/07/14 03:40:36;;;;;;;;;14.25;12.75;;;;;33.33;31.85;101373.16;5121272;27;45148;-79
2022/07/14 03:43:01;;;;;;;;;15.50;14.25;;;;;33.28;32.35;101377.69;5116738;27;45647;-79
2022/07/14 03:45:27;;;;;;;;;18.25;15.00;;;;;33.24;32.06;101373.75;5120224;27;45413;-79
2022/07/14 03:47:52;;;;;;;;;17.00;13.00;;;;;33.02;32.23;101374.31;5120373;27;45251;-79
2022/07/14 03:50:18;;;;;;;;;14.00;12.00;;;;;33.05;32.33;101373.03;5119147;27;45247;-79
2022/07/14 03:52:43;;;;;;;;;16.50;13.50;;;;;33.14;32.33;101362.56;5099677;27;45432;-79
2022/07/14 03:55:09;;;;;;;;;17.00;13.25;;;;;33.10;32.25;101380.50;5100512;27;45461;-79
2022/07/14 03:57:34;;;;;;;;;16.00;12.25;;;;;32.97;32.53;101376.91;5120121;27;45472;-79
2022/07/14 04:00:00;;;;;;;;;18.25;12.50;;;;;33.33;32.12;101369.59;5120220;27;45307;-79
2022/07/14 04:02:25;;;;;;;;;14.25;10.25;;;;;33.15;32.42;101370.50;5100407;27;45402;-79
2022/07/14 04:04:51;;;;;;;;;12.75;12.50;;;;;33.11;32.29;101374.81;5102330;27;45443;-79
2022/07/14 04:07:16;;;;;;;;;16.00;12.75;;;;;32.81;32.70;101380.34;5110243;27;45318;-79
2022/07/14 04:09:41;;;;;;;;;10.25;10.25;;;;;32.79;32.69;101373.44;5111534;27;45474;-79
2022/07/14 04:12:07;;;;;;;;;9.50;8.25;;;;;32.74;32.89;101379.63;5118244;27;46145;-79
2022/07/14 04:14:32;;;;;;;;;10.75;9.75;;;;;32.60;33.58;101389.06;5123743;27;45527;-79
2022/07/14 04:16:58;;;;;;;;;10.25;9.00;;;;;32.57;33.29;101376.69;5110768;27;45301;-79
2022/07/14 04:19:23;;;;;;;;;12.75;10.00;;;;;32.62;33.36;101381.44;5115946;27;45290;-79
2022/07/14 04:21:48;;;;;;;;;12.25;9.50;;;;;32.63;33.15;101386.69;5105377;27;45717;-79
2022/07/14 04:24:14;;;;;;;;;10.50;8.50;;;;;32.72;33.56;101384.50;5102439;27;46318;-79
2022/07/14 04:26:42;;;;;;;;;9.75;9.25;;;;;32.79;33.30;101373.44;5123705;27;45415;-78
2022/07/14 04:29:08;;;;;;;;;10.25;8.00;;;;;32.69;33.28;101384.91;5123941;27;45303;-79
2022/07/14 04:31:34;;;;;;;;;10.25;7.00;;;;;32.70;32.95;101384.72;5120945;27;45545;-79
2022/07/14 04:33:59;;;;;;;;;10.00;8.50;;;;;32.87;33.10;101384.06;5123573;27;45464;-79
2022/07/14 04:36:25;;;;;;;;;9.00;7.25;;;;;33.04;32.94;101380.41;5104807;27;45352;-79
2022/07/14 04:38:50;;;;;;;;;13.50;8.75;;;;;33.10;33.12;101384.09;5104695;27;45402;-79
2022/07/14 04:41:16;;;;;;;;;6.75;6.75;;;;;33.16;32.69;101377.66;5123351;27;45635;-79
2022/07/14 04:43:41;;;;;;;;;9.50;8.50;;;;;33.18;32.56;101389.19;5114562;27;46149;-79
2022/07/14 04:46:08;;;;;;;;;9.50;8.50;;;;;33.17;33.00;101381.22;5104107;27;45382;-79
2022/07/14 04:52:01;;;;;;;;;16.25;9.50;;;;;33.16;32.82;101385.88;5123276;27;45369;-79
2022/07/14 04:54:03;;;;;;;;;11.75;9.25;;;;;33.62;32.43;101386.94;5104364;27;45476;-78
2022/07/14 04:56:29;;;;;;;;;12.25;10.50;;;;;33.44;32.47;101393.41;5104883;27;45488;-78
2022/07/14 04:58:54;;;;;;;;;10.25;9.00;;;;;33.56;32.63;101407.94;5123998;27;45219;-79
2022/07/14 05:01:19;;;;;;;;;17.25;12.75;;;;;33.54;33.13;101396.38;5114384;27;45502;-79
2022/07/14 05:03:45;;;;;;;;;13.50;12.25;;;;;33.29;33.50;101395.78;5083817;27;48094;-79
2022/07/14 05:06:11;;;;;;;;;13.25;12.00;;;;;33.22;33.23;101389.59;5084695;27;45483;-79
2022/07/14 05:08:36;;;;;;;;;14.25;13.25;;;;;33.38;33.09;101384.25;5117397;27;45349;-79
2022/07/14 05:11:03;;;;;;;;;10.75;10.75;;;;;33.44;32.90;101383.28;5122741;27;45184;-79
2022/07/14 05:13:29;;;;;;;;;13.25;13.00;;;;;33.20;33.21;101389.81;5122534;27;46154;-79
2022/07/14 05:15:54;;;;;;;;;15.50;11.00;;;;;33.33;33.00;101392.31;5104332;27;46108;-79
2022/07/14 05:18:20;;;;;;;;;12.75;12.75;;;;;33.49;32.96;101395.44;5113154;27;45349;-79
2022/07/14 05:20:45;;;;;;;;;13.75;12.75;;;;;33.79;32.70;101387.91;5105754;27;45511;-79
2022/07/14 05:23:10;;;;;;;;;13.00;8.75;;;;;33.71;32.74;101391.00;5108288;27;45801;-79
2022/07/14 05:25:37;;;;;;;;;11.50;10.25;;;;;33.46;32.65;101384.94;5122168;27;45486;-79
2022/07/14 05:28:03;;;;;;;;;12.25;10.50;;;;;33.49;32.89;101387.22;5120930;27;45508;-79
2022/07/14 05:30:28;;;;;;;;;10.00;9.50;;;;;33.96;32.78;101388.00;5122086;27;45434;-79
2022/07/14 05:32:57;;;;;;;;;9.75;9.75;;;;;33.92;32.42;101389.56;5123021;27;46115;-79
2022/07/14 05:35:22;;;;;;;;;11.00;10.00;;;;;33.77;32.79;101387.34;5116720;27;45298;-79
2022/07/14 05:37:48;;;;;;;;;8.25;8.00;;;;;33.81;32.80;101385.75;5116221;27;45570;-79
2022/07/14 05:40:13;;;;;;;;;12.25;9.75;;;;;33.71;32.84;101391.81;5122521;27;45311;-79
2022/07/14 05:42:38;;;;;;;;;9.50;8.00;;;;;33.75;33.01;101397.69;5113083;27;45618;-79
2022/07/14 05:45:04;;;;;;;;;13.50;10.00;;;;;33.69;33.25;101382.19;5122949;27;45387;-79
2022/07/14 05:47:29;;;;;;;;;8.00;7.50;;;;;33.76;33.01;101388.41;5117797;27;45514;-79
2022/07/14 05:49:55;;;;;;;;;8.00;8.00;;;;;33.53;33.31;101393.88;5122184;27;45559;-79
2022/07/14 05:52:20;;;;;;;;;13.00;9.00;;;;;33.31;33.77;101401.88;5108290;27;46496;-79
2022/07/14 05:54:46;;;;;;;;;10.00;8.25;;;;;33.07;33.79;101398.22;5107920;27;45350;-79
2022/07/14 05:57:13;;;;;;;;;10.00;8.50;;;;;33.40;33.90;101403.19;5122555;27;45363;-79
2022/07/14 05:59:38;;;;;;;;;10.25;8.75;;;;;33.04;34.67;101409.66;5122506;27;45807;-79
2022/07/14 06:02:04;;;;;;;;;10.00;10.00;;;;;32.84;34.37;101406.41;5108401;27;45533;-79
2022/07/14 06:04:30;;;;;;;;;10.75;9.25;;;;;32.68;35.29;101408.72;5101122;27;45320;-79
2022/07/14 06:06:55;;;;;;;;;12.00;9.00;;;;;32.91;34.43;101398.94;5096473;27;45377;-79
2022/07/14 06:09:21;;;;;;;;;8.00;8.00;;;;;33.07;34.34;101404.53;5121369;27;45366;-79
2022/07/14 06:11:47;;;;;;;;;6.25;6.25;;;;;33.21;34.71;101399.69;5114454;27;46565;-79
2022/07/14 06:14:14;;;;;;;;;10.50;9.00;;;;;33.30;34.08;101411.16;5112130;27;45255;-79
2022/07/14 06:16:40;;;;;;;;;9.25;8.00;;;;;33.43;34.21;101411.72;5118617;27;45552;-79
2022/07/14 06:19:05;;;;;;;;;8.75;7.50;;;;;33.51;34.03;101405.06;5108943;27;45658;-79
2022/07/14 06:21:31;;;;;;;;;8.00;8.00;;;;;33.96;33.21;101412.69;5121538;27;46415;-79
2022/07/14 06:23:56;;;;;;;;;9.50;9.50;;;;;33.92;33.11;101408.75;5121374;27;45450;-79
2022/07/14 06:26:22;;;;;;;;;11.75;9.00;;;;;34.04;33.06;101402.16;5121092;27;45677;-79
2022/07/14 06:28:48;;;;;;;;;9.00;7.25;;;;;34.06;33.06;101408.22;5114527;27;45402;-79
2022/07/14 06:31:13;;;;;;;;;11.50;10.00;;;;;34.51;32.29;101405.56;5120664;27;45585;-79
2022/07/14 06:33:39;;;;;;;;;11.50;9.00;;;;;34.63;32.07;101416.50;5121861;27;45325;-79
2022/07/14 06:36:05;;;;;;;;;10.25;9.75;;;;;34.53;32.52;101410.81;5106490;27;45278;-79
2022/07/14 06:38:31;;;;;;;;;8.00;8.00;;;;;34.67;32.38;101423.16;5119822;27;45393;-79
2022/07/14 06:40:57;;;;;;;;;7.75;7.75;;;;;34.43;32.67;101416.09;5096848;27;47841;-79
2022/07/14 06:43:22;;;;;;;;;8.00;8.00;;;;;34.48;32.33;101419.78;5089969;27;45320;-79
2022/07/14 06:45:47;;;;;;;;;8.25;8.25;;;;;34.36;32.57;101412.69;5093511;27;45368;-79
2022/07/14 06:48:13;;;;;;;;;7.75;7.00;;;;;34.43;32.14;101413.34;5101218;27;45219;-79
2022/07/14 06:50:38;;;;;;;;;12.00;8.75;;;;;34.44;32.49;101415.88;5101439;27;46287;-79
2022/07/14 06:53:03;;;;;;;;;9.00;9.00;;;;;34.50;32.40;101420.38;5087395;27;45254;-79
2022/07/14 06:55:29;;;;;;;;;10.75;10.50;;;;;34.65;32.39;101421.75;5099911;27;45361;-79
2022/07/14 06:57:54;;;;;;;;;3.75;2.00;;;;;34.24;32.71;101418.19;5099471;27;45316;-79
2022/07/14 07:00:19;;;;;;;;;12.75;8.75;;;;;34.39;32.49;101412.19;5100521;27;45488;-79
2022/07/14 07:02:46;;;;;;;;;10.00;9.00;;;;;34.18;32.65;101416.41;5081472;27;45397;-79
2022/07/14 07:08:00;;;;;;;;;10.50;8.25;;;;;33.94;33.06;101414.81;5096144;27;45382;-79
2022/07/14 07:10:26;;;;;;;;;15.00;10.00;;;;;34.31;32.88;101420.81;5089650;27;45522;-79
2022/07/14 07:12:53;;;;;;;;;12.75;10.00;;;;;34.15;33.12;101423.22;5099862;27;45432;-79
2022/07/14 07:15:18;;;;;;;;;9.25;8.00;;;;;34.53;32.62;101417.13;5095575;27;45323;-79
2022/07/14 07:17:44;;;;;;;;;11.75;10.75;;;;;35.67;31.56;101421.53;5097570;27;45529;-79
2022/07/14 07:20:09;;;;;;;;;12.25;10.50;;;;;37.91;29.90;101411.63;5083114;27;45364;-79
2022/07/14 07:22:35;;;;;;;;;8.50;8.00;;;;;40.61;27.32;101414.75;5091184;27;45420;-80
2022/07/14 07:25:02;;;;;;;;;8.00;7.50;;;;;42.90;25.92;101416.59;5116655;27;45324;-80
2022/07/14 07:27:28;;;;;;;;;10.00;8.00;;;;;45.09;23.10;101410.00;5099499;27;45440;-80
2022/07/14 07:29:53;;;;;;;;;9.25;7.50;;;;;46.61;21.39;101408.41;5089710;27;45459;-80
2022/07/14 07:32:18;;;;;;;;;12.00;9.50;;;;;48.61;18.82;101412.75;5087991;27;45345;-80
2022/07/14 07:34:44;;;;;;;;;12.75;10.00;;;;;49.77;17.97;101412.41;5100037;27;45349;-79
2022/07/14 07:37:09;;;;;;;;;10.00;9.50;;;;;48.54;17.98;101407.69;5100803;27;45246;-79
2022/07/14 07:39:35;;;;;;;;;8.25;8.25;;;;;47.57;18.64;101415.41;5099421;27;45811;-78
2022/07/14 07:42:01;;;;;;;;;10.75;9.00;;;;;47.38;18.84;101415.00;5101826;27;45435;-78
2022/07/14 07:44:28;;;;;;;;;9.50;8.50;;;;;48.23;18.15;101405.31;5113278;27;45413;-78
2022/07/14 07:46:53;;;;;;;;;12.00;9.75;;;;;48.51;16.79;101404.78;5099893;27;45338;-78
2022/07/14 07:49:20;;;;;;;;;9.50;9.25;;;;;48.12;17.60;101412.47;5118131;27;46474;-77
2022/07/14 07:51:45;;;;;;;;;10.75;9.00;;;;;47.54;18.09;101416.06;5118298;27;45595;-75
2022/07/14 07:54:10;;;;;;;;;9.75;8.75;;;;;48.69;18.06;101403.44;5118848;27;45493;-76
2022/07/14 07:56:36;;;;;;;;;10.00;8.25;;;;;49.23;17.46;101414.59;5099427;27;45665;-74
2022/07/14 07:59:02;;;;;;;;;8.75;8.25;;;;;50.21;16.17;101409.81;5119072;27;46198;-75
2022/07/14 08:01:27;;;;;;;;;9.75;8.00;;;;;50.93;16.28;101411.53;5111050;27;45431;-75
2022/07/14 08:03:53;;;;;;;;;8.25;7.25;;;;;52.12;15.94;101414.09;5116320;27;45381;-75
2022/07/14 08:06:18;;;;;;;;;9.75;8.00;;;;;52.68;14.85;101411.66;5100431;27;45406;-73
2022/07/14 08:08:44;;;;;;;;;7.75;7.25;;;;;52.05;15.83;101411.94;5100185;27;45979;-73
2022/07/14 08:11:09;;;;;;;;;11.00;10.00;;;;;49.79;16.29;101415.69;5103902;27;45451;-73
2022/07/14 08:13:34;;;;;;;;;12.25;8.25;;;;;48.72;16.47;101408.34;5120415;27;45285;-73
2022/07/14 08:16:00;;;;;;;;;11.00;9.75;;;;;49.02;16.49;101404.25;5120560;27;45550;-73
2022/07/14 08:18:25;;;;;;;;;12.75;11.00;;;;;47.78;17.48;101407.09;5116945;27;46276;-73
2022/07/14 08:20:52;;;;;;;;;13.00;11.25;;;;;47.45;17.45;101406.88;5113995;27;45423;-73
2022/07/14 08:23:20;;;;;;;;;9.50;8.00;;;;;47.93;17.13;101398.09;5108005;27;45366;-73
2022/07/14 08:25:46;;;;;;;;;8.00;8.00;;;;;48.42;16.93;101401.19;5113395;27;45429;-73
2022/07/14 08:28:11;;;;;;;;;9.75;9.25;;;;;48.52;16.56;101396.03;5114719;27;46301;-74
2022/07/14 08:30:37;;;;;;;;;12.00;10.00;;;;;48.50;16.78;101395.53;5103462;27;45405;-74
2022/07/14 08:33:02;;;;;;;;;9.00;8.25;;;;;49.25;15.96;101401.06;5081822;27;45365;-74
2022/07/14 08:35:28;;;;;;;;;10.00;8.75;;;;;50.11;16.00;101402.66;5099988;27;45527;-74
2022/07/14 08:37:54;;;;;;;;;9.00;8.00;;;;;50.59;16.15;101396.09;5100062;27;46042;-74
2022/07/14 08:40:23;;;;;;;;;11.00;8.75;;;;;50.63;15.04;101394.19;5098975;27;45483;-74
2022/07/14 08:42:50;;;;;;;;;9.75;8.75;;;;;49.78;14.85;101389.59;5100050;27;45305;-74
2022/07/14 08:45:21;;;;;;;;;8.50;8.00;;;;;50.90;15.59;101398.97;5117772;27;45294;-74
2022/07/14 08:47:47;;;;;;;;;8.25;8.25;;;;;50.97;14.93;101391.94;5120318;27;46351;-74
2022/07/14 08:50:21;;;;;;;;;10.25;7.75;;;;;51.74;15.16;101401.53;5121549;27;45249;-74
2022/07/14 08:52:48;;;;;;;;;9.75;9.75;;;;;51.51;14.60;101392.94;5110188;27;45436;-75
2022/07/14 08:55:15;;;;;;;;;9.00;6.25;;;;;52.25;14.77;101388.25;5102646;27;45172;-75
2022/07/14 08:57:42;;;;;;;;;7.00;7.00;;;;;52.52;14.40;101389.19;5100174;27;47308;-74
2022/07/14 09:00:12;;;;;;;;;10.00;9.00;;;;;52.32;13.08;101387.56;5096449;27;45456;-74
2022/07/14 09:02:38;;;;;;;;;7.75;7.75;;;;;52.81;13.14;101387.75;5118654;27;45603;-75
2022/07/14 09:05:06;;;;;;;;;7.75;7.75;;;;;52.84;13.27;101397.44;5121623;27;45398;-74
2022/07/14 09:07:36;;;;;;;;;6.00;6.00;;;;;52.36;14.23;101391.25;5121900;27;46171;-74
2022/07/14 09:10:08;;;;;;;;;7.00;7.00;;;;;52.81;13.30;101392.56;5122783;27;45271;-74
2022/07/14 09:12:34;;;;;;;;;11.50;9.75;;;;;52.67;13.51;101391.09;5115768;27;45945;-74
2022/07/14 09:18:17;;;;;;;;;7.75;6.75;;;;;53.60;12.94;101392.75;5122112;27;45676;-74
2022/07/14 09:20:43;;;;;;;;;6.00;6.00;;;;;53.58;13.15;101387.50;5114559;27;46035;-75
2022/07/14 09:23:09;;;;;;;;;6.75;6.00;;;;;53.65;12.65;101379.09;5116824;27;45952;-74
2022/07/14 09:25:35;;;;;;;;;9.50;8.00;;;;;54.33;12.98;101380.88;5103306;27;45495;-75
2022/07/14 09:28:02;;;;;;;;;11.25;9.00;;;;;54.19;12.78;101375.03;5103641;27;45975;-75
2022/07/14 09:30:29;;;;;;;;;8.75;8.75;;;;;54.45;12.29;101374.97;5100780;27;45440;-76
2022/07/14 09:32:59;;;;;;;;;7.00;7.00;;;;;54.81;12.69;101372.53;5114763;27;45523;-75
2022/07/14 09:35:39;;;;;;;;;5.25;4.25;;;;;54.16;12.15;101384.31;5115021;27;45373;-75
2022/07/14 09:38:20;;;;;;;;;5.25;5.25;;;;;54.45;11.11;101386.28;5113101;27;45369;-76
2022/07/14 09:40:47;;;;;;;;;5.25;5.00;;;;;55.66;11.06;101375.22;5095758;27;45756;-76
2022/07/14 09:43:13;;;;;;;;;6.25;5.00;;;;;54.72;11.86;101372.84;5115088;27;45526;-76
2022/07/14 09:45:45;;;;;;;;;4.50;4.50;;;;;54.93;11.98;101383.56;5094857;27;45493;-76
2022/07/14 09:48:13;;;;;;;;;6.00;4.75;;;;;53.97;11.79;101384.44;5094690;27;48105;-76
2022/07/14 09:50:50;;;;;;;;;10.00;6.00;;;;;54.10;12.09;101374.50;5101885;27;45365;-76
2022/07/14 09:53:19;;;;;;;;;4.50;3.50;;;;;53.09;12.23;101378.97;5121470;27;45520;-76
2022/07/14 09:55:56;;;;;;;;;7.25;5.75;;;;;53.61;11.51;101375.44;5120102;27;45601;-76
2022/07/14 09:58:23;;;;;;;;;6.00;6.00;;;;;53.88;12.10;101383.91;5121292;27;45487;-76
2022/07/14 10:00:56;;;;;;;;;5.00;5.00;;;;;52.18;12.85;101373.94;5119383;27;45402;-76
2022/07/14 10:03:23;;;;;;;;;7.50;6.25;;;;;52.79;12.42;101373.19;5123608;27;45384;-76
2022/07/14 10:05:51;;;;;;;;;5.50;5.50;;;;;53.05;12.56;101386.56;5118640;27;45346;-75
2022/07/14 10:08:19;;;;;;;;;6.00;6.00;;;;;52.81;12.58;101384.94;5104722;27;47040;-75
2022/07/14 10:10:44;;;;;;;;;5.50;5.25;;;;;51.73;13.08;101382.19;5121312;27;45658;-76
2022/07/14 10:13:11;;;;;;;;;6.25;5.25;;;;;51.69;13.19;101384.13;5122001;27;45354;-76
2022/07/14 10:15:36;;;;;;;;;6.00;4.25;;;;;53.24;11.94;101377.25;5120997;27;45421;-76
2022/07/14 10:18:03;;;;;;;;;9.75;8.75;;;;;53.56;11.80;101369.28;5102109;27;46363;-76
2022/07/14 10:20:29;;;;;;;;;4.75;4.75;;;;;53.44;12.60;101378.78;5102316;27;45633;-76
2022/07/14 10:22:55;;;;;;;;;4.50;4.50;;;;;52.81;12.44;101382.09;5120857;27;45385;-76
2022/07/14 10:25:27;;;;;;;;;4.50;4.50;;;;;52.01;12.52;101377.22;5102259;27;45700;-76
2022/07/14 10:27:53;;;;;;;;;4.00;4.00;;;;;52.16;13.08;101378.34;5124886;27;46980;-76
2022/07/14 10:30:36;;;;;;;;;229.50;62.50;;;;;52.84;11.65;101377.69;5124089;27;45383;-80
2022/07/14 10:33:07;;;;;;;;;5.00;5.00;;;;;52.88;11.93;101375.81;5119058;27;45432;-81
2022/07/14 10:35:40;;;;;;;;;6.00;6.00;;;;;52.48;12.04;101379.00;5121657;27;45267;-81
2022/07/14 10:38:17;;;;;;;;;4.50;4.50;;;;;52.39;11.92;101381.25;5123660;27;46295;-81
2022/07/14 10:40:50;;;;;;;;;6.75;5.50;;;;;51.68;12.49;101382.47;5118409;27;45302;-81
2022/07/14 10:43:18;;;;;;;;;6.25;6.00;;;;;50.45;13.58;101375.97;5123587;27;45230;-81
2022/07/14 10:45:51;;;;;;;;;6.00;5.25;;;;;50.27;13.99;101383.91;5125339;27;45407;-80
2022/07/14 10:48:48;;;;;;;;;6.50;4.75;;;;;47.91;15.11;101384.41;5125053;27;45439;-81
2022/07/14 10:51:14;;;;;;;;;7.00;5.25;;;;;46.65;16.19;101392.59;5109314;27;45347;-83
2022/07/14 10:53:58;;;;;;;;;4.00;4.00;;;;;46.36;15.95;101381.25;5125498;27;45472;-83
2022/07/14 10:56:26;;;;;;;;;5.00;5.00;;;;;45.17;17.20;101380.56;5125749;27;45346;-82
2022/07/14 10:59:26;;;;;;;;;6.50;5.25;;;;;45.31;17.19;101372.91;5103036;27;47404;-82
2022/07/14 11:02:13;;;;;;;;;4.75;4.75;;;;;45.10;17.06;101372.63;5113868;27;45391;-83
2022/07/14 11:04:59;;;;;;;;;7.00;4.25;;;;;45.15;17.60;101380.91;5114587;27;45582;-82
2022/07/14 11:07:50;;;;;;;;;5.25;4.50;;;;;45.09;17.14;101369.00;5094880;27;45388;-83
2022/07/14 11:10:21;;;;;;;;;4.50;4.25;;;;;45.19;17.55;101372.69;5119500;27;46269;-82
2022/07/14 11:13:04;;;;;;;;;5.75;4.50;;;;;44.80;17.26;101368.66;5120290;27;45555;-82
2022/07/14 11:15:39;;;;;;;;;4.75;4.75;;;;;44.46;17.61;101365.63;5109704;27;45409;-83
2022/07/14 11:18:24;;;;;;;;;4.25;4.25;;;;;43.27;18.38;101367.59;5112591;27;45381;-83
2022/07/14 11:21:19;;;;;;;;;5.75;2.25;;;;;43.52;18.01;101366.28;5119867;27;45653;-82
2022/07/14 11:23:48;;;;;;;;;3.25;3.25;;;;;43.36;18.30;101365.75;5107165;27;45297;-82
2022/07/14 11:26:47;;;;;;;;;6.75;5.25;;;;;42.84;18.56;101369.75;5123895;27;45567;-83
2022/07/14 11:29:14;;;;;;;;;7.00;4.25;;;;;42.92;18.86;101366.28;5102663;27;45532;-82